Plain View, Virginia
Current Conditions -  °F | °C
As of 7:15 AM on Monday 20 Oct 2014 (Local Time) from KFYJ Reporting Station
Overcast Overcast  
Wind Chill: 40°   Ceiling: 100
Heat Index: 40°   Visibility: 0.25mi
Dew Point: 38°   Wind: 0mph
Humidity: 95%   Direction: NA
Pressure: 30.16"   Gusts: NA
Location:  37.5357°N, 76.7136°W
Report Text: KFYJ 201115Z AUTO 00000KT 1/4SM OVC001 04/04 A3016 RMK AO2 T00430035
Loading
Personal Weather Stations






























Interactive Weather Map
Tropical Storm Tracking
New forecast layout! Learn more

10-Day Weather Forecast

Advertisements
Track Severe Weather on mobile